sensor_id;sensor_type;location;lat;lon;timestamp;P1;durP1;ratioP1;P2;durP2;ratioP2
6862;SDS011;3470;48.738;9.616;2023-02-12T15:45:51;5.77;;;4.33;;
6862;SDS011;3470;48.738;9.616;2023-02-12T15:48:18;4.97;;;4.33;;
6862;SDS011;3470;48.738;9.616;2023-02-12T15:50:54;6.87;;;5.47;;
6862;SDS011;3470;48.738;9.616;2023-02-12T15:53:30;7.83;;;5.40;;
6862;SDS011;3470;48.738;9.616;2023-02-12T15:55:57;7.40;;;5.43;;
6862;SDS011;3470;48.738;9.616;2023-02-12T15:58:40;7.27;;;5.17;;
6862;SDS011;3470;48.738;9.616;2023-02-12T16:01:12;7.23;;;5.57;;
6862;SDS011;3470;48.738;9.616;2023-02-12T16:10:07;8.37;;;6.33;;
6862;SDS011;3470;48.738;9.616;2023-02-12T16:12:38;10.37;;;7.40;;
6862;SDS011;3470;48.738;9.616;2023-02-12T16:15:05;9.83;;;7.20;;
6862;SDS011;3470;48.738;9.616;2023-02-12T18:53:23;12.97;;;7.83;;
6862;SDS011;3470;48.738;9.616;2023-02-12T18:55:48;11.13;;;7.50;;
6862;SDS011;3470;48.738;9.616;2023-02-12T18:58:14;12.33;;;8.17;;
6862;SDS011;3470;48.738;9.616;2023-02-12T19:00:40;9.83;;;7.80;;
6862;SDS011;3470;48.738;9.616;2023-02-12T19:03:05;12.27;;;8.10;;
6862;SDS011;3470;48.738;9.616;2023-02-12T19:05:31;12.60;;;8.27;;
6862;SDS011;3470;48.738;9.616;2023-02-12T19:07:56;10.70;;;7.90;;
6862;SDS011;3470;48.738;9.616;2023-02-12T19:10:22;13.03;;;7.80;;
6862;SDS011;3470;48.738;9.616;2023-02-12T19:12:48;13.37;;;9.03;;
6862;SDS011;3470;48.738;9.616;2023-02-12T19:15:13;12.20;;;8.33;;
6862;SDS011;3470;48.738;9.616;2023-02-12T19:17:39;13.13;;;9.40;;
6862;SDS011;3470;48.738;9.616;2023-02-12T19:20:04;14.83;;;9.77;;
6862;SDS011;3470;48.738;9.616;2023-02-12T19:22:30;16.17;;;10.47;;
6862;SDS011;3470;48.738;9.616;2023-02-12T19:24:56;16.93;;;10.50;;
6862;SDS011;3470;48.738;9.616;2023-02-12T19:27:22;17.03;;;11.30;;
6862;SDS011;3470;48.738;9.616;2023-02-12T19:29:47;14.13;;;10.47;;
6862;SDS011;3470;48.738;9.616;2023-02-12T19:32:13;14.77;;;9.87;;
6862;SDS011;3470;48.738;9.616;2023-02-12T19:34:38;12.57;;;8.60;;
6862;SDS011;3470;48.738;9.616;2023-02-12T19:37:04;12.20;;;8.30;;
6862;SDS011;3470;48.738;9.616;2023-02-12T19:39:31;12.40;;;8.63;;
6862;SDS011;3470;48.738;9.616;2023-02-12T19:41:57;17.03;;;9.23;;
6862;SDS011;3470;48.738;9.616;2023-02-12T19:44:23;13.90;;;10.10;;
6862;SDS011;3470;48.738;9.616;2023-02-12T19:46:49;13.67;;;8.93;;
6862;SDS011;3470;48.738;9.616;2023-02-12T19:49:17;13.37;;;9.87;;
6862;SDS011;3470;48.738;9.616;2023-02-12T19:51:44;15.77;;;11.07;;
6862;SDS011;3470;48.738;9.616;2023-02-12T19:54:11;16.77;;;11.47;;
6862;SDS011;3470;48.738;9.616;2023-02-12T19:56:38;20.57;;;12.00;;
6862;SDS011;3470;48.738;9.616;2023-02-12T19:59:04;16.40;;;11.17;;
6862;SDS011;3470;48.738;9.616;2023-02-12T20:01:31;18.47;;;11.53;;
6862;SDS011;3470;48.738;9.616;2023-02-12T20:03:57;18.40;;;10.63;;
6862;SDS011;3470;48.738;9.616;2023-02-12T20:06:26;17.77;;;11.40;;
6862;SDS011;3470;48.738;9.616;2023-02-12T20:08:55;14.83;;;10.37;;
6862;SDS011;3470;48.738;9.616;2023-02-12T20:11:22;14.33;;;9.70;;
6862;SDS011;3470;48.738;9.616;2023-02-12T20:13:50;16.00;;;10.70;;
6862;SDS011;3470;48.738;9.616;2023-02-12T20:16:21;16.40;;;10.50;;
6862;SDS011;3470;48.738;9.616;2023-02-12T20:18:49;15.27;;;10.20;;
6862;SDS011;3470;48.738;9.616;2023-02-12T20:21:18;16.80;;;10.20;;
6862;SDS011;3470;48.738;9.616;2023-02-12T20:23:47;14.90;;;10.30;;
6862;SDS011;3470;48.738;9.616;2023-02-12T20:26:14;13.73;;;9.70;;
6862;SDS011;3470;48.738;9.616;2023-02-12T20:28:41;13.47;;;10.10;;
6862;SDS011;3470;48.738;9.616;2023-02-12T20:31:17;15.17;;;10.10;;
6862;SDS011;3470;48.738;9.616;2023-02-12T20:33:51;16.30;;;10.60;;
6862;SDS011;3470;48.738;9.616;2023-02-12T20:36:21;17.63;;;11.17;;
6862;SDS011;3470;48.738;9.616;2023-02-12T20:38:50;17.33;;;11.47;;
6862;SDS011;3470;48.738;9.616;2023-02-12T20:41:18;16.13;;;11.60;;
6862;SDS011;3470;48.738;9.616;2023-02-12T20:43:43;18.33;;;13.23;;
6862;SDS011;3470;48.738;9.616;2023-02-12T20:46:10;19.00;;;12.33;;
6862;SDS011;3470;48.738;9.616;2023-02-12T20:48:37;18.40;;;12.30;;
6862;SDS011;3470;48.738;9.616;2023-02-12T20:51:10;19.60;;;13.03;;
6862;SDS011;3470;48.738;9.616;2023-02-12T20:53:41;16.87;;;12.00;;
6862;SDS011;3470;48.738;9.616;2023-02-12T20:56:12;18.27;;;12.50;;
6862;SDS011;3470;48.738;9.616;2023-02-12T20:58:39;15.73;;;11.27;;
6862;SDS011;3470;48.738;9.616;2023-02-12T21:01:09;21.40;;;11.70;;
6862;SDS011;3470;48.738;9.616;2023-02-12T21:03:39;17.67;;;11.77;;
6862;SDS011;3470;48.738;9.616;2023-02-12T21:06:05;19.43;;;12.37;;
6862;SDS011;3470;48.738;9.616;2023-02-12T21:08:31;16.93;;;11.73;;
6862;SDS011;3470;48.738;9.616;2023-02-12T21:11:03;19.83;;;13.37;;
6862;SDS011;3470;48.738;9.616;2023-02-12T21:13:31;21.53;;;13.33;;
6862;SDS011;3470;48.738;9.616;2023-02-12T21:16:04;22.40;;;13.73;;
6862;SDS011;3470;48.738;9.616;2023-02-12T21:18:31;22.27;;;14.70;;
6862;SDS011;3470;48.738;9.616;2023-02-12T21:21:00;26.50;;;14.73;;
6862;SDS011;3470;48.738;9.616;2023-02-12T21:23:31;26.13;;;15.87;;
6862;SDS011;3470;48.738;9.616;2023-02-12T21:26:10;23.63;;;14.33;;
6862;SDS011;3470;48.738;9.616;2023-02-12T21:28:37;34.17;;;18.80;;
6862;SDS011;3470;48.738;9.616;2023-02-12T21:31:04;28.73;;;18.47;;
6862;SDS011;3470;48.738;9.616;2023-02-12T21:33:30;28.13;;;18.10;;
6862;SDS011;3470;48.738;9.616;2023-02-12T21:35:55;30.90;;;19.33;;
6862;SDS011;3470;48.738;9.616;2023-02-12T21:38:21;34.00;;;17.90;;
6862;SDS011;3470;48.738;9.616;2023-02-12T21:40:46;28.03;;;17.47;;
6862;SDS011;3470;48.738;9.616;2023-02-12T21:43:12;31.80;;;18.47;;
6862;SDS011;3470;48.738;9.616;2023-02-12T21:45:37;28.60;;;17.70;;
6862;SDS011;3470;48.738;9.616;2023-02-12T21:48:03;34.20;;;20.23;;
6862;SDS011;3470;48.738;9.616;2023-02-12T21:50:28;37.27;;;21.97;;
6862;SDS011;3470;48.738;9.616;2023-02-12T21:52:54;40.57;;;21.83;;
6862;SDS011;3470;48.738;9.616;2023-02-12T21:55:20;38.03;;;21.50;;
6862;SDS011;3470;48.738;9.616;2023-02-12T21:57:45;41.17;;;21.43;;
6862;SDS011;3470;48.738;9.616;2023-02-12T22:00:11;43.53;;;24.80;;
6862;SDS011;3470;48.738;9.616;2023-02-12T22:02:37;42.33;;;24.40;;
6862;SDS011;3470;48.738;9.616;2023-02-12T22:05:03;44.27;;;23.87;;
6862;SDS011;3470;48.738;9.616;2023-02-12T22:07:28;39.53;;;23.53;;
6862;SDS011;3470;48.738;9.616;2023-02-12T22:09:54;37.53;;;22.63;;
6862;SDS011;3470;48.738;9.616;2023-02-12T22:12:20;42.23;;;23.43;;
6862;SDS011;3470;48.738;9.616;2023-02-12T22:14:46;43.97;;;22.87;;
6862;SDS011;3470;48.738;9.616;2023-02-12T22:17:12;39.27;;;22.27;;
6862;SDS011;3470;48.738;9.616;2023-02-12T22:19:37;45.70;;;23.07;;
6862;SDS011;3470;48.738;9.616;2023-02-12T22:22:03;47.37;;;24.07;;
6862;SDS011;3470;48.738;9.616;2023-02-12T22:24:28;42.10;;;23.20;;
6862;SDS011;3470;48.738;9.616;2023-02-12T22:26:54;41.07;;;21.87;;
6862;SDS011;3470;48.738;9.616;2023-02-12T22:29:20;39.23;;;21.90;;
6862;SDS011;3470;48.738;9.616;2023-02-12T22:31:45;45.90;;;22.43;;
6862;SDS011;3470;48.738;9.616;2023-02-12T22:34:13;40.57;;;23.70;;
6862;SDS011;3470;48.738;9.616;2023-02-12T22:36:41;50.80;;;23.53;;
6862;SDS011;3470;48.738;9.616;2023-02-12T22:39:08;46.00;;;24.50;;
6862;SDS011;3470;48.738;9.616;2023-02-12T22:41:35;45.23;;;23.47;;
6862;SDS011;3470;48.738;9.616;2023-02-12T22:44:02;39.07;;;22.67;;
6862;SDS011;3470;48.738;9.616;2023-02-12T22:46:29;50.63;;;23.23;;
6862;SDS011;3470;48.738;9.616;2023-02-12T22:48:55;45.00;;;23.00;;
6862;SDS011;3470;48.738;9.616;2023-02-12T22:51:25;48.27;;;23.47;;
6862;SDS011;3470;48.738;9.616;2023-02-12T22:53:52;44.17;;;22.33;;
6862;SDS011;3470;48.738;9.616;2023-02-12T22:56:19;42.13;;;23.33;;
6862;SDS011;3470;48.738;9.616;2023-02-12T22:58:46;45.47;;;21.80;;
6862;SDS011;3470;48.738;9.616;2023-02-12T23:01:13;40.90;;;21.87;;
6862;SDS011;3470;48.738;9.616;2023-02-12T23:03:40;48.23;;;23.07;;
6862;SDS011;3470;48.738;9.616;2023-02-12T23:06:07;45.37;;;23.27;;
6862;SDS011;3470;48.738;9.616;2023-02-12T23:08:35;39.17;;;21.57;;
6862;SDS011;3470;48.738;9.616;2023-02-12T23:11:00;44.07;;;22.40;;
6862;SDS011;3470;48.738;9.616;2023-02-12T23:13:26;53.97;;;23.37;;
6862;SDS011;3470;48.738;9.616;2023-02-12T23:15:52;47.53;;;24.10;;
6862;SDS011;3470;48.738;9.616;2023-02-12T23:18:19;50.10;;;24.70;;
6862;SDS011;3470;48.738;9.616;2023-02-12T23:20:45;47.23;;;23.37;;
6862;SDS011;3470;48.738;9.616;2023-02-12T23:23:11;48.07;;;22.73;;
6862;SDS011;3470;48.738;9.616;2023-02-12T23:25:36;49.10;;;22.73;;
6862;SDS011;3470;48.738;9.616;2023-02-12T23:28:02;47.63;;;23.13;;
6862;SDS011;3470;48.738;9.616;2023-02-12T23:30:28;49.43;;;23.20;;
6862;SDS011;3470;48.738;9.616;2023-02-12T23:32:53;49.13;;;23.50;;
6862;SDS011;3470;48.738;9.616;2023-02-12T23:35:19;52.30;;;23.47;;
6862;SDS011;3470;48.738;9.616;2023-02-12T23:37:44;46.77;;;23.07;;
6862;SDS011;3470;48.738;9.616;2023-02-12T23:40:10;44.57;;;22.47;;
6862;SDS011;3470;48.738;9.616;2023-02-12T23:42:36;43.83;;;22.37;;
6862;SDS011;3470;48.738;9.616;2023-02-12T23:45:02;48.00;;;24.23;;
6862;SDS011;3470;48.738;9.616;2023-02-12T23:47:28;52.77;;;23.90;;
6862;SDS011;3470;48.738;9.616;2023-02-12T23:49:53;53.43;;;25.73;;
6862;SDS011;3470;48.738;9.616;2023-02-12T23:52:19;58.97;;;25.80;;
6862;SDS011;3470;48.738;9.616;2023-02-12T23:54:44;52.10;;;25.10;;
6862;SDS011;3470;48.738;9.616;2023-02-12T23:57:10;51.17;;;23.83;;
6862;SDS011;3470;48.738;9.616;2023-02-12T23:59:35;54.17;;;26.13;;
